METAR Data
IDs: Format: Raw Decoded Include TAF

Data at: 2126 UTC 08 Aug 2020

METAR for:EBFS (Florennes(AB), --, BX)
Text:EBFS 082055Z AUTO 05006KT 9999 SCT130/// BKN150/// 28/12 Q1019 BLU
Temperature: 28.0°C ( 82°F)
Dewpoint: 12.0°C ( 54°F) [RH = 37%]
Pressure (altimeter):30.09 inches Hg (1019.0 mb)
Winds:from the NE (50 degrees) at 7 MPH (6 knots; 3.1 m/s)
Visibility:6 or more sm (10+ km)
Ceiling:15000 feet AGL
Clouds: scattered clouds at 13000 feet AGL, broken clouds at 15000 feet AGL

TAF for:EBFS (Florennes(AB), --, BX)
Text:No data found